createdAt,value
2024-02-03T00:00:07.309Z,74.30
2024-02-03T00:02:41.369Z,74.40
2024-02-03T00:05:10.426Z,74.30
2024-02-03T00:07:40.453Z,74.40
2024-02-03T00:10:10.169Z,74.40
2024-02-03T00:12:39.636Z,74.40
2024-02-03T00:15:09.610Z,74.40
2024-02-03T00:17:39.547Z,74.50
2024-02-03T00:20:10.374Z,74.40
2024-02-03T00:22:40.599Z,74.50
2024-02-03T00:25:10.335Z,74.50
2024-02-03T00:27:40.057Z,74.60
2024-02-03T00:30:10.993Z,74.60
2024-02-03T00:32:39.629Z,74.80
2024-02-03T00:35:08.937Z,74.60
2024-02-03T00:37:38.118Z,74.80
2024-02-03T00:40:10.449Z,74.80
2024-02-03T00:42:39.080Z,74.80
2024-02-03T00:45:09.043Z,74.80
2024-02-03T00:47:37.694Z,74.90
2024-02-03T00:50:07.346Z,74.80
2024-02-03T00:52:36.183Z,74.90
2024-02-03T00:55:05.318Z,74.80
2024-02-03T00:57:35.349Z,74.90
2024-02-03T01:00:05.138Z,74.90
2024-02-03T01:02:33.820Z,74.90
2024-02-03T01:05:02.545Z,74.90
2024-02-03T01:07:31.243Z,74.90
2024-02-03T01:10:00.294Z,74.90
2024-02-03T01:12:29.268Z,75.00
2024-02-03T01:14:59.992Z,74.90
2024-02-03T01:17:30.301Z,75.10
2024-02-03T01:19:59.121Z,75.00
2024-02-03T01:22:28.185Z,75.30
2024-02-03T01:24:56.907Z,75.10
2024-02-03T01:27:25.433Z,75.10
2024-02-03T01:29:54.959Z,75.10
2024-02-03T01:32:24.906Z,75.10
2024-02-03T01:34:53.596Z,75.20
2024-02-03T01:37:22.295Z,75.20
2024-02-03T01:39:50.954Z,75.40
2024-02-03T01:42:18.933Z,75.30
2024-02-03T01:44:47.505Z,75.40
2024-02-03T01:47:16.879Z,75.50
2024-02-03T01:49:47.238Z,75.40
2024-02-03T01:52:16.505Z,75.40
2024-02-03T01:54:45.398Z,75.40
2024-02-03T01:57:16.760Z,75.40
2024-02-03T01:59:45.940Z,75.40
2024-02-03T02:02:14.552Z,75.40
2024-02-03T02:04:43.464Z,75.50
2024-02-03T02:07:14.075Z,75.50
2024-02-03T02:09:43.044Z,75.60
2024-02-03T02:12:11.977Z,75.50
2024-02-03T02:14:43.869Z,75.50
2024-02-03T02:17:12.772Z,75.50
2024-02-03T02:19:41.608Z,75.60
2024-02-03T02:22:11.692Z,75.60
2024-02-03T02:24:40.251Z,75.60
2024-02-03T02:27:09.131Z,75.60
2024-02-03T02:29:37.720Z,75.60
2024-02-03T02:32:07.499Z,75.60
2024-02-03T02:34:36.153Z,75.60
2024-02-03T02:37:04.857Z,75.60
2024-02-03T02:39:34.950Z,75.60
2024-02-03T02:42:03.619Z,75.60
2024-02-03T02:44:32.343Z,75.70
2024-02-03T02:47:01.079Z,75.60
2024-02-03T02:49:29.734Z,75.60
2024-02-03T02:51:58.454Z,75.60
2024-02-03T02:54:27.060Z,75.60
2024-02-03T02:56:56.974Z,75.60
2024-02-03T02:59:25.557Z,75.70
2024-02-03T03:01:54.101Z,75.60
2024-02-03T03:04:22.915Z,75.70
2024-02-03T03:06:51.540Z,75.60
2024-02-03T03:09:20.191Z,75.70
2024-02-03T03:11:49.007Z,75.60
2024-02-03T03:14:18.899Z,75.80
2024-02-03T03:16:47.606Z,75.70
2024-02-03T03:19:16.467Z,75.60
2024-02-03T03:21:45.267Z,75.80
2024-02-03T03:24:14.620Z,75.60
2024-02-03T03:26:44.340Z,75.80
2024-02-03T03:29:16.436Z,75.60
2024-02-03T03:31:47.172Z,75.60
2024-02-03T03:34:16.175Z,75.70
2024-02-03T03:36:44.718Z,75.70
2024-02-03T03:39:13.306Z,75.80
2024-02-03T03:41:41.865Z,75.70
2024-02-03T03:44:10.341Z,75.80
2024-02-03T03:46:38.792Z,75.80
2024-02-03T03:49:08.888Z,75.80
2024-02-03T03:51:37.574Z,75.80
2024-02-03T03:54:06.587Z,75.80
2024-02-03T03:56:35.071Z,75.80
2024-02-03T03:59:03.406Z,75.80
2024-02-03T04:01:31.992Z,75.80
2024-02-03T04:04:00.582Z,75.80
2024-02-03T04:06:30.508Z,75.80
2024-02-03T04:08:59.230Z,75.80
2024-02-03T04:11:27.668Z,75.80
2024-02-03T04:13:56.218Z,75.80
2024-02-03T04:16:24.761Z,75.80
2024-02-03T04:18:53.375Z,75.80
2024-02-03T04:21:22.005Z,75.80
2024-02-03T04:23:51.736Z,75.80
2024-02-03T04:26:20.645Z,75.80
2024-02-03T04:28:49.168Z,75.90
2024-02-03T04:31:17.803Z,75.80
2024-02-03T04:33:46.371Z,75.90
2024-02-03T04:36:15.046Z,75.90
2024-02-03T04:38:43.610Z,75.80
2024-02-03T04:41:26.088Z,75.80
2024-02-03T04:43:54.792Z,75.80
2024-02-03T04:46:23.653Z,75.90
2024-02-03T04:48:53.467Z,75.90
2024-02-03T04:51:22.178Z,75.90
2024-02-03T04:53:51.011Z,75.90
2024-02-03T04:56:21.065Z,75.90
2024-02-03T04:58:49.541Z,75.90
2024-02-03T05:01:18.263Z,75.90
2024-02-03T05:03:46.808Z,75.80
2024-02-03T05:06:15.535Z,75.90
2024-02-03T05:08:45.634Z,75.90
2024-02-03T05:11:14.749Z,75.80
2024-02-03T05:13:44.637Z,75.90
2024-02-03T05:16:13.214Z,75.90
2024-02-03T05:18:41.784Z,75.90
2024-02-03T05:21:10.447Z,76.00
2024-02-03T05:23:38.839Z,76.00
2024-02-03T05:26:07.262Z,76.00
2024-02-03T05:28:35.667Z,76.00
2024-02-03T05:31:06.366Z,76.10
2024-02-03T05:33:35.710Z,76.20
2024-02-03T05:36:04.516Z,76.00
2024-02-03T05:38:32.964Z,76.10
2024-02-03T05:41:01.598Z,76.00
2024-02-03T05:43:29.967Z,76.10
2024-02-03T05:45:58.559Z,76.20
2024-02-03T05:48:28.586Z,76.20
2024-02-03T05:50:57.185Z,76.20
2024-02-03T05:53:25.755Z,76.20
2024-02-03T05:55:54.131Z,76.20
2024-02-03T05:58:22.666Z,76.30
2024-02-03T06:00:51.744Z,76.30
2024-02-03T06:03:20.671Z,76.30
2024-02-03T06:06:05.820Z,77.30
2024-02-03T06:08:40.723Z,76.60
2024-02-03T06:11:09.377Z,76.40
2024-02-03T06:13:37.944Z,76.40
2024-02-03T06:16:07.109Z,77.30
2024-02-03T06:18:35.582Z,76.50
2024-02-03T06:21:06.241Z,76.40
2024-02-03T06:23:34.721Z,76.60
2024-02-03T06:26:03.098Z,76.60
2024-02-03T06:28:31.570Z,76.60
2024-02-03T06:31:00.418Z,76.60
2024-02-03T06:33:29.588Z,76.60
2024-02-03T06:36:00.637Z,76.70
2024-02-03T06:38:31.221Z,76.70
2024-02-03T06:40:59.689Z,76.90
2024-02-03T06:43:28.231Z,76.80
2024-02-03T06:45:56.738Z,76.90
2024-02-03T06:48:25.471Z,76.90
2024-02-03T06:50:54.982Z,76.90
2024-02-03T06:53:23.377Z,76.90
2024-02-03T06:55:53.447Z,76.90
2024-02-03T06:58:21.835Z,77.00
2024-02-03T07:00:50.795Z,77.00
2024-02-03T07:03:19.742Z,77.00
2024-02-03T07:05:48.548Z,77.00
2024-02-03T07:08:16.993Z,77.00
2024-02-03T07:10:45.530Z,77.00
2024-02-03T07:13:15.260Z,77.00
2024-02-03T07:15:43.791Z,77.10
2024-02-03T07:18:12.418Z,77.10
2024-02-03T07:20:40.955Z,77.00
2024-02-03T07:23:09.494Z,77.10
2024-02-03T07:25:37.905Z,77.20
2024-02-03T07:28:06.796Z,77.10
2024-02-03T07:30:36.688Z,77.20
2024-02-03T07:33:05.938Z,77.20
2024-02-03T07:35:34.582Z,77.10
2024-02-03T07:38:03.306Z,77.20
2024-02-03T07:40:31.749Z,77.20
2024-02-03T07:43:00.525Z,77.20
2024-02-03T07:45:29.244Z,77.30
2024-02-03T07:47:59.119Z,77.20
2024-02-03T07:50:27.636Z,77.40
2024-02-03T07:52:57.141Z,77.40
2024-02-03T07:55:25.669Z,77.50
2024-02-03T07:57:54.165Z,77.40
2024-02-03T08:00:23.928Z,77.50
2024-02-03T08:02:52.457Z,77.60
2024-02-03T08:05:22.240Z,77.50
2024-02-03T08:07:50.874Z,77.40
2024-02-03T08:10:19.465Z,77.50
2024-02-03T08:12:48.012Z,77.50
2024-02-03T08:15:17.027Z,77.60
2024-02-03T08:17:46.229Z,77.60
2024-02-03T08:20:15.703Z,77.50
2024-02-03T08:22:45.762Z,77.60
2024-02-03T08:25:14.190Z,77.60
2024-02-03T08:27:42.829Z,77.60
2024-02-03T08:30:13.285Z,77.60
2024-02-03T08:32:41.659Z,77.70
2024-02-03T08:37:42.195Z,77.70
2024-02-03T08:40:14.203Z,77.70
2024-02-03T08:42:42.972Z,77.80
2024-02-03T08:45:11.635Z,77.70
2024-02-03T08:47:40.670Z,77.90
2024-02-03T08:50:10.088Z,77.90
2024-02-03T08:52:38.575Z,78.00
2024-02-03T08:55:07.882Z,77.90
2024-02-03T08:57:37.717Z,77.90
2024-02-03T09:00:08.283Z,78.10
2024-02-03T09:02:37.202Z,78.00
2024-02-03T09:05:06.977Z,78.00
2024-02-03T09:07:35.893Z,78.10
2024-02-03T09:10:04.598Z,78.10
2024-02-03T09:12:33.242Z,78.10
2024-02-03T09:15:03.148Z,78.10
2024-02-03T09:17:31.918Z,78.20
2024-02-03T09:20:00.680Z,78.20
2024-02-03T09:22:29.196Z,78.30
2024-02-03T09:24:57.792Z,78.40
2024-02-03T09:27:26.239Z,78.40
2024-02-03T09:29:54.728Z,78.40
2024-02-03T09:32:25.005Z,78.40
2024-02-03T09:34:53.503Z,78.50
2024-02-03T09:39:53.879Z,78.60
2024-02-03T09:42:22.812Z,78.60
2024-02-03T09:44:51.984Z,78.60
2024-02-03T09:47:21.068Z,78.70
2024-02-03T09:49:51.012Z,78.70
2024-02-03T09:52:21.477Z,78.70
2024-02-03T09:54:50.150Z,78.70
2024-02-03T09:57:18.948Z,78.60
2024-02-03T09:59:52.744Z,78.60
2024-02-03T10:02:21.294Z,78.90
2024-02-03T10:04:51.472Z,78.60
2024-02-03T10:07:21.403Z,78.60
2024-02-03T10:12:23.575Z,78.70
2024-02-03T10:15:02.474Z,78.90
2024-02-03T10:17:31.433Z,78.90
2024-02-03T10:20:01.392Z,78.70
2024-02-03T10:22:29.929Z,78.70
2024-02-03T10:25:04.278Z,78.70
2024-02-03T10:27:32.740Z,78.90
2024-02-03T10:30:01.180Z,78.70
2024-02-03T10:32:29.795Z,78.70
2024-02-03T10:35:00.802Z,79.00
2024-02-03T10:37:29.431Z,78.90
2024-02-03T10:39:58.180Z,79.70
2024-02-03T10:42:30.023Z,78.90
2024-02-03T10:45:04.564Z,79.00
2024-02-03T10:47:35.635Z,79.00
2024-02-03T10:50:11.391Z,79.00
2024-02-03T10:52:42.211Z,79.00
2024-02-03T10:55:13.773Z,79.00
2024-02-03T10:57:45.425Z,79.00
2024-02-03T11:00:19.786Z,79.00
2024-02-03T11:02:55.058Z,79.10
2024-02-03T11:05:28.005Z,79.20
2024-02-03T11:07:57.105Z,79.10
2024-02-03T11:10:30.731Z,79.20
2024-02-03T11:13:16.777Z,79.10
2024-02-03T11:15:46.227Z,79.20
2024-02-03T11:18:16.165Z,79.00
2024-02-03T11:20:46.077Z,79.10
2024-02-03T11:23:15.668Z,79.20
2024-02-03T11:25:50.780Z,79.10
2024-02-03T11:28:19.371Z,79.30
2024-02-03T11:30:47.784Z,79.20
2024-02-03T11:33:16.347Z,79.30
2024-02-03T11:35:48.951Z,79.20
2024-02-03T11:38:17.450Z,79.30
2024-02-03T11:40:46.453Z,79.20
2024-02-03T11:43:15.465Z,79.30
2024-02-03T11:45:48.244Z,79.40
2024-02-03T11:48:17.160Z,79.40
2024-02-03T11:50:47.303Z,79.40
2024-02-03T11:53:25.306Z,79.50
2024-02-03T11:55:55.158Z,79.60
2024-02-03T11:58:24.735Z,79.40
2024-02-03T12:01:04.253Z,79.40
2024-02-03T12:03:32.884Z,79.50
2024-02-03T12:06:03.353Z,79.40
2024-02-03T12:08:32.780Z,79.50
2024-02-03T12:11:01.300Z,79.60
2024-02-03T12:13:37.693Z,79.40
2024-02-03T12:16:09.701Z,79.70
2024-02-03T12:18:39.701Z,79.70
2024-02-03T12:21:10.221Z,79.50
2024-02-03T12:23:39.723Z,79.60
2024-02-03T12:26:08.364Z,79.50
2024-02-03T12:28:37.005Z,79.60
2024-02-03T12:31:06.019Z,79.60
2024-02-03T12:33:34.714Z,79.70
2024-02-03T12:36:03.821Z,79.70
2024-02-03T12:38:34.000Z,79.60
2024-02-03T12:41:02.519Z,79.70
2024-02-03T12:43:31.020Z,79.70
2024-02-03T12:45:59.430Z,79.70
2024-02-03T12:48:28.012Z,79.70
2024-02-03T12:50:57.517Z,79.80
2024-02-03T12:53:26.323Z,79.80
2024-02-03T12:55:56.870Z,79.80
2024-02-03T12:58:28.228Z,80.60
2024-02-03T13:00:56.956Z,79.80
2024-02-03T13:03:25.594Z,79.70
2024-02-03T13:05:54.447Z,79.80
2024-02-03T13:08:23.286Z,79.80
2024-02-03T13:10:51.866Z,80.00
2024-02-03T13:13:21.688Z,79.80
2024-02-03T13:15:50.173Z,79.80
2024-02-03T13:18:18.688Z,79.80
2024-02-03T13:20:47.253Z,79.80
2024-02-03T13:23:15.758Z,79.80
2024-02-03T13:25:44.280Z,79.80
2024-02-03T13:28:12.824Z,80.60
2024-02-03T13:30:42.640Z,79.90
2024-02-03T13:33:11.584Z,79.80
2024-02-03T13:35:40.387Z,79.80
2024-02-03T13:38:09.218Z,79.90
2024-02-03T13:40:37.876Z,79.90
2024-02-03T13:43:06.476Z,80.30
2024-02-03T13:45:36.131Z,79.90
2024-02-03T13:48:07.940Z,79.90
2024-02-03T13:50:36.507Z,79.90
2024-02-03T13:53:05.484Z,79.90
2024-02-03T13:55:33.965Z,79.90
2024-02-03T13:58:02.574Z,79.90
2024-02-03T14:00:32.381Z,79.90
2024-02-03T14:03:01.521Z,79.90
2024-02-03T14:05:31.550Z,79.90
2024-02-03T14:08:00.250Z,79.90
2024-02-03T14:10:28.951Z,79.90
2024-02-03T14:12:57.607Z,79.90
2024-02-03T14:15:26.120Z,79.90
2024-02-03T14:17:54.696Z,79.90
2024-02-03T14:20:23.556Z,79.90
2024-02-03T14:22:53.434Z,79.90
2024-02-03T14:25:22.130Z,80.00
2024-02-03T14:27:50.581Z,79.90
2024-02-03T14:30:19.127Z,79.90
2024-02-03T14:32:47.673Z,79.90
2024-02-03T14:35:16.639Z,79.90
2024-02-03T14:37:46.254Z,79.90
2024-02-03T14:40:16.932Z,79.90
2024-02-03T14:42:45.631Z,79.90
2024-02-03T14:45:15.977Z,79.90
2024-02-03T14:47:44.384Z,79.90
2024-02-03T14:50:13.487Z,79.90
2024-02-03T14:52:42.288Z,79.90
2024-02-03T14:55:11.117Z,79.90
2024-02-03T14:57:41.050Z,80.00
2024-02-03T15:00:11.352Z,79.90
2024-02-03T15:02:39.989Z,79.90
2024-02-03T15:05:09.779Z,79.90
2024-02-03T15:07:38.735Z,79.90
2024-02-03T15:10:09.209Z,80.00
2024-02-03T15:12:37.978Z,80.80
2024-02-03T15:15:09.109Z,80.00
2024-02-03T15:17:37.735Z,80.00
2024-02-03T15:20:07.300Z,80.00
2024-02-03T15:22:35.914Z,79.90
2024-02-03T15:25:05.960Z,79.90
2024-02-03T15:27:34.451Z,80.00
2024-02-03T15:30:03.340Z,79.90
2024-02-03T15:32:33.225Z,79.90
2024-02-03T15:35:01.948Z,80.00
2024-02-03T15:37:30.587Z,79.90
2024-02-03T15:39:59.236Z,79.90
2024-02-03T15:42:27.773Z,79.90
2024-02-03T15:44:56.921Z,79.90
2024-02-03T15:47:25.443Z,79.90
2024-02-03T15:49:55.700Z,79.90
2024-02-03T15:52:24.461Z,80.00
2024-02-03T15:54:53.298Z,79.90
2024-02-03T15:57:22.177Z,79.90
2024-02-03T15:59:50.681Z,80.00
2024-02-03T16:02:22.206Z,80.00
2024-02-03T16:04:51.971Z,80.00
2024-02-03T16:07:22.390Z,80.00
2024-02-03T16:09:50.928Z,80.00
2024-02-03T16:12:22.754Z,80.00
2024-02-03T16:14:53.996Z,79.90
2024-02-03T16:17:23.616Z,80.00
2024-02-03T16:19:52.281Z,80.00
2024-02-03T16:22:22.467Z,80.00
2024-02-03T16:24:51.678Z,80.00
2024-02-03T16:27:20.192Z,80.00
2024-02-03T16:29:49.170Z,80.00
2024-02-03T16:32:17.726Z,80.00
2024-02-03T16:34:46.342Z,80.00
2024-02-03T16:37:15.169Z,80.10
2024-02-03T16:39:45.078Z,80.00
2024-02-03T16:42:13.857Z,80.00
2024-02-03T16:44:42.508Z,80.00
2024-02-03T16:47:10.995Z,80.00
2024-02-03T16:49:39.903Z,80.10
2024-02-03T16:52:08.572Z,80.10
2024-02-03T16:54:37.235Z,80.10
2024-02-03T16:57:09.759Z,80.10
2024-02-03T16:59:38.353Z,80.10
2024-02-03T17:02:06.873Z,79.90
2024-02-03T17:04:35.641Z,80.00
2024-02-03T17:07:04.343Z,80.00
2024-02-03T17:09:32.826Z,80.00
2024-02-03T17:12:01.778Z,80.10
2024-02-03T17:14:31.554Z,80.20
2024-02-03T17:17:00.202Z,80.10
2024-02-03T17:19:28.808Z,80.00
2024-02-03T17:21:58.844Z,80.10
2024-02-03T17:24:27.738Z,80.20
2024-02-03T17:26:56.150Z,80.00
2024-02-03T17:29:24.715Z,80.00
2024-02-03T17:31:54.469Z,80.20
2024-02-03T17:34:23.096Z,80.20
2024-02-03T17:36:51.611Z,80.10
2024-02-03T17:39:21.763Z,80.10
2024-02-03T17:41:50.256Z,80.30
2024-02-03T17:44:18.823Z,80.30
2024-02-03T17:46:47.403Z,80.20
2024-02-03T17:49:17.323Z,80.30
2024-02-03T17:51:45.924Z,80.30
2024-02-03T17:54:14.437Z,80.30
2024-02-03T17:56:43.259Z,80.30
2024-02-03T17:59:13.931Z,80.40
2024-02-03T18:01:42.556Z,80.50
2024-02-03T18:04:11.172Z,80.30
2024-02-03T18:06:41.015Z,80.40
2024-02-03T18:09:10.212Z,80.50
2024-02-03T18:11:43.381Z,80.40
2024-02-03T18:14:12.004Z,80.50
2024-02-03T18:16:40.613Z,80.50
2024-02-03T18:19:09.931Z,80.60
2024-02-03T18:21:41.667Z,80.50
2024-02-03T18:24:10.229Z,80.50
2024-02-03T18:26:38.787Z,80.50
2024-02-03T18:29:07.180Z,80.50
2024-02-03T18:31:35.693Z,80.50
2024-02-03T18:34:04.370Z,80.50
2024-02-03T18:36:33.265Z,80.50
2024-02-03T18:39:03.765Z,80.50
2024-02-03T18:41:32.286Z,80.50
2024-02-03T18:44:01.020Z,80.40
2024-02-03T18:46:29.628Z,80.40
2024-02-03T18:49:00.341Z,80.40
2024-02-03T18:51:29.236Z,80.30
2024-02-03T18:53:57.825Z,80.30
2024-02-03T18:56:28.362Z,80.30
2024-02-03T18:58:56.738Z,81.20
2024-02-03T19:01:29.431Z,80.30
2024-02-03T19:04:00.810Z,80.40
2024-02-03T19:06:31.420Z,80.30
2024-02-03T19:08:59.939Z,80.30
2024-02-03T19:11:30.326Z,81.20
2024-02-03T19:13:58.800Z,80.30
2024-02-03T19:16:27.412Z,80.30
2024-02-03T19:18:56.013Z,80.30
2024-02-03T19:21:24.578Z,80.40
2024-02-03T19:23:53.036Z,80.40
2024-02-03T19:26:21.898Z,80.40
2024-02-03T19:28:52.327Z,80.40
2024-02-03T19:31:20.902Z,80.40
2024-02-03T19:33:49.524Z,80.40
2024-02-03T19:36:18.119Z,80.40
2024-02-03T19:38:46.620Z,80.40
2024-02-03T19:41:17.733Z,80.40
2024-02-03T19:43:47.271Z,80.50
2024-02-03T19:46:18.046Z,80.30
2024-02-03T19:48:46.905Z,80.50
2024-02-03T19:51:16.453Z,80.40
2024-02-03T19:53:44.953Z,80.30
2024-02-03T19:56:14.113Z,80.50
2024-02-03T19:58:42.691Z,80.30
2024-02-03T20:01:11.379Z,80.50
2024-02-03T20:03:41.375Z,80.30
2024-02-03T20:06:09.932Z,81.20
2024-02-03T20:08:38.735Z,80.50
2024-02-03T20:11:07.282Z,80.50
2024-02-03T20:13:36.073Z,80.30
2024-02-03T20:16:05.578Z,80.40
2024-02-03T20:18:34.672Z,80.50
2024-02-03T20:21:04.974Z,80.40
2024-02-03T20:23:34.190Z,80.40
2024-02-03T20:26:02.904Z,80.40
2024-02-03T20:28:31.414Z,80.40
2024-02-03T20:31:00.060Z,80.40
2024-02-03T20:33:30.804Z,80.40
2024-02-03T20:35:59.794Z,80.40
2024-02-03T20:38:29.634Z,80.40
2024-02-03T20:40:58.113Z,80.40
2024-02-03T20:43:26.901Z,80.50
2024-02-03T20:45:57.138Z,80.40
2024-02-03T20:48:25.978Z,80.40
2024-02-03T20:50:54.981Z,80.40
2024-02-03T20:53:24.309Z,80.40
2024-02-03T20:55:54.346Z,80.40
2024-02-03T20:58:22.991Z,80.40
2024-02-03T21:00:51.777Z,80.40
2024-02-03T21:03:20.692Z,80.40
2024-02-03T21:05:50.227Z,80.40
2024-02-03T21:08:19.063Z,80.30
2024-02-03T21:10:47.799Z,80.30
2024-02-03T21:13:19.579Z,80.30
2024-02-03T21:15:48.724Z,80.30
2024-02-03T21:18:21.002Z,80.20
2024-02-03T21:20:50.518Z,80.20
2024-02-03T21:23:19.231Z,80.20
2024-02-03T21:25:48.189Z,80.20
2024-02-03T21:28:18.342Z,80.20
2024-02-03T21:30:47.038Z,80.20
2024-02-03T21:33:15.776Z,80.20
2024-02-03T21:35:44.758Z,80.30
2024-02-03T21:38:13.166Z,80.30
2024-02-03T21:40:42.063Z,80.30
2024-02-03T21:43:10.764Z,80.40
2024-02-03T21:45:40.825Z,80.30
2024-02-03T21:48:10.261Z,80.40
2024-02-03T21:50:39.000Z,80.40
2024-02-03T21:53:07.710Z,80.40
2024-02-03T21:55:36.206Z,80.40
2024-02-03T21:58:04.882Z,80.40
2024-02-03T22:00:33.858Z,80.30
2024-02-03T22:03:03.806Z,80.40
2024-02-03T22:05:32.372Z,80.40
2024-02-03T22:08:01.202Z,80.40
2024-02-03T22:10:29.724Z,80.40
2024-02-03T22:12:58.387Z,80.40
2024-02-03T22:15:27.068Z,80.40
2024-02-03T22:17:58.836Z,80.40
2024-02-03T22:20:29.016Z,80.40
2024-02-03T22:22:57.588Z,80.40
2024-02-03T22:25:26.271Z,80.40
2024-02-03T22:27:54.681Z,80.40
2024-02-03T22:30:23.317Z,80.40
2024-02-03T22:32:51.964Z,80.40
2024-02-03T22:35:20.807Z,80.40
2024-02-03T22:37:50.608Z,80.40
2024-02-03T22:40:19.354Z,80.40
2024-02-03T22:42:48.256Z,80.40
2024-02-03T22:45:16.977Z,80.40
2024-02-03T22:47:45.590Z,80.50
2024-02-03T22:50:14.467Z,80.40
2024-02-03T22:52:42.967Z,80.40
2024-02-03T22:55:12.881Z,80.40
2024-02-03T22:57:41.277Z,80.60
2024-02-03T23:00:28.569Z,80.50
2024-02-03T23:02:57.377Z,80.50
2024-02-03T23:05:27.218Z,80.60
2024-02-03T23:07:55.743Z,80.50
2024-02-03T23:10:25.568Z,80.50
2024-02-03T23:12:54.518Z,80.50
2024-02-03T23:15:23.690Z,80.50
2024-02-03T23:17:54.315Z,80.50
2024-02-03T23:20:23.519Z,80.50
2024-02-03T23:22:52.591Z,80.50
2024-02-03T23:25:22.978Z,80.50
2024-02-03T23:27:53.837Z,80.50
2024-02-03T23:30:23.541Z,80.50
2024-02-03T23:32:52.487Z,80.40
2024-02-03T23:35:21.478Z,80.40
2024-02-03T23:37:50.097Z,80.40
2024-02-03T23:40:18.979Z,80.40
2024-02-03T23:42:48.273Z,80.30
2024-02-03T23:45:20.971Z,80.40
2024-02-03T23:47:49.691Z,80.40
2024-02-03T23:50:19.284Z,80.20
2024-02-03T23:52:48.136Z,80.20
2024-02-03T23:55:16.950Z,80.20
2024-02-03T23:57:45.645Z,80.20
